sensor_id;sensor_type;location;lat;lon;timestamp;P1;durP1;ratioP1;P2;durP2;ratioP2
58896;SDS011;44677;52.378;10.400;2023-04-24T00:01:31;1.50;;;1.10;;
58896;SDS011;44677;52.378;10.400;2023-04-24T00:03:59;1.20;;;1.10;;
58896;SDS011;44677;52.378;10.400;2023-04-24T00:06:25;1.40;;;1.10;;
58896;SDS011;44677;52.378;10.400;2023-04-24T00:09:04;2.40;;;1.20;;
58896;SDS011;44677;52.378;10.400;2023-04-24T00:11:30;0.90;;;0.90;;
58896;SDS011;44677;52.378;10.400;2023-04-24T00:13:56;1.30;;;1.20;;
58896;SDS011;44677;52.378;10.400;2023-04-24T00:16:22;1.10;;;1.10;;
58896;SDS011;44677;52.378;10.400;2023-04-24T00:18:48;1.40;;;1.30;;
58896;SDS011;44677;52.378;10.400;2023-04-24T00:21:14;1.30;;;1.20;;
58896;SDS011;44677;52.378;10.400;2023-04-24T00:23:43;2.00;;;1.20;;
58896;SDS011;44677;52.378;10.400;2023-04-24T00:26:09;1.10;;;0.90;;
58896;SDS011;44677;52.378;10.400;2023-04-24T00:28:35;1.40;;;1.30;;
58896;SDS011;44677;52.378;10.400;2023-04-24T00:31:02;1.10;;;1.10;;
58896;SDS011;44677;52.378;10.400;2023-04-24T00:33:28;1.40;;;1.30;;
58896;SDS011;44677;52.378;10.400;2023-04-24T00:35:53;1.60;;;1.10;;
58896;SDS011;44677;52.378;10.400;2023-04-24T00:38:18;0.90;;;0.90;;
58896;SDS011;44677;52.378;10.400;2023-04-24T00:40:45;1.20;;;1.10;;
58896;SDS011;44677;52.378;10.400;2023-04-24T00:45:37;1.30;;;1.10;;
58896;SDS011;44677;52.378;10.400;2023-04-24T00:48:03;1.50;;;1.10;;
58896;SDS011;44677;52.378;10.400;2023-04-24T00:50:29;1.30;;;1.20;;
58896;SDS011;44677;52.378;10.400;2023-04-24T00:52:55;2.00;;;1.60;;
58896;SDS011;44677;52.378;10.400;2023-04-24T00:55:20;2.80;;;1.10;;
58896;SDS011;44677;52.378;10.400;2023-04-24T00:57:46;2.10;;;1.00;;
58896;SDS011;44677;52.378;10.400;2023-04-24T01:00:12;1.90;;;1.10;;
58896;SDS011;44677;52.378;10.400;2023-04-24T01:02:43;1.60;;;1.20;;
58896;SDS011;44677;52.378;10.400;2023-04-24T01:05:13;1.40;;;1.30;;
58896;SDS011;44677;52.378;10.400;2023-04-24T01:07:41;1.80;;;1.30;;
58896;SDS011;44677;52.378;10.400;2023-04-24T01:10:15;1.30;;;1.20;;
58896;SDS011;44677;52.378;10.400;2023-04-24T01:12:40;1.30;;;1.20;;
58896;SDS011;44677;52.378;10.400;2023-04-24T01:15:06;2.10;;;1.60;;
58896;SDS011;44677;52.378;10.400;2023-04-24T01:17:34;1.30;;;1.20;;
58896;SDS011;44677;52.378;10.400;2023-04-24T01:20:00;1.60;;;1.50;;
58896;SDS011;44677;52.378;10.400;2023-04-24T01:22:26;1.30;;;1.20;;
58896;SDS011;44677;52.378;10.400;2023-04-24T01:24:52;1.60;;;1.50;;
58896;SDS011;44677;52.378;10.400;2023-04-24T01:27:18;2.30;;;1.40;;
58896;SDS011;44677;52.378;10.400;2023-04-24T01:29:45;1.20;;;1.10;;
58896;SDS011;44677;52.378;10.400;2023-04-24T01:32:13;3.20;;;1.40;;
58896;SDS011;44677;52.378;10.400;2023-04-24T01:34:39;2.80;;;1.40;;
58896;SDS011;44677;52.378;10.400;2023-04-24T01:37:06;2.50;;;1.30;;
58896;SDS011;44677;52.378;10.400;2023-04-24T01:39:31;1.30;;;1.30;;
58896;SDS011;44677;52.378;10.400;2023-04-24T01:41:59;2.80;;;1.50;;
58896;SDS011;44677;52.378;10.400;2023-04-24T01:44:28;1.30;;;1.30;;
58896;SDS011;44677;52.378;10.400;2023-04-24T01:46:54;1.90;;;1.30;;
58896;SDS011;44677;52.378;10.400;2023-04-24T01:49:20;1.50;;;1.40;;
58896;SDS011;44677;52.378;10.400;2023-04-24T01:51:48;1.40;;;1.30;;
58896;SDS011;44677;52.378;10.400;2023-04-24T01:54:14;2.20;;;1.30;;
58896;SDS011;44677;52.378;10.400;2023-04-24T01:56:42;2.70;;;1.40;;
58896;SDS011;44677;52.378;10.400;2023-04-24T01:59:09;1.90;;;1.70;;
58896;SDS011;44677;52.378;10.400;2023-04-24T02:01:36;1.50;;;1.20;;
58896;SDS011;44677;52.378;10.400;2023-04-24T02:04:03;1.40;;;1.40;;
58896;SDS011;44677;52.378;10.400;2023-04-24T02:06:37;2.20;;;1.70;;
58896;SDS011;44677;52.378;10.400;2023-04-24T02:09:02;1.50;;;1.40;;
58896;SDS011;44677;52.378;10.400;2023-04-24T02:11:28;1.90;;;1.70;;
58896;SDS011;44677;52.378;10.400;2023-04-24T02:13:54;1.50;;;1.40;;
58896;SDS011;44677;52.378;10.400;2023-04-24T02:16:21;2.00;;;1.40;;
58896;SDS011;44677;52.378;10.400;2023-04-24T02:18:46;1.70;;;1.60;;
58896;SDS011;44677;52.378;10.400;2023-04-24T02:21:12;1.80;;;1.70;;
58896;SDS011;44677;52.378;10.400;2023-04-24T02:23:37;1.70;;;1.60;;
58896;SDS011;44677;52.378;10.400;2023-04-24T02:26:03;1.90;;;1.70;;
58896;SDS011;44677;52.378;10.400;2023-04-24T02:28:29;1.50;;;1.30;;
58896;SDS011;44677;52.378;10.400;2023-04-24T02:30:54;2.40;;;1.60;;
58896;SDS011;44677;52.378;10.400;2023-04-24T02:33:21;1.40;;;1.30;;
58896;SDS011;44677;52.378;10.400;2023-04-24T02:35:47;1.50;;;1.40;;
58896;SDS011;44677;52.378;10.400;2023-04-24T02:38:13;1.70;;;1.60;;
58896;SDS011;44677;52.378;10.400;2023-04-24T02:40:38;1.50;;;1.40;;
58896;SDS011;44677;52.378;10.400;2023-04-24T02:43:04;1.90;;;1.70;;
58896;SDS011;44677;52.378;10.400;2023-04-24T02:45:30;2.10;;;1.40;;
58896;SDS011;44677;52.378;10.400;2023-04-24T02:47:55;1.50;;;1.40;;
58896;SDS011;44677;52.378;10.400;2023-04-24T02:50:21;1.30;;;1.20;;
58896;SDS011;44677;52.378;10.400;2023-04-24T02:52:47;1.70;;;1.60;;
58896;SDS011;44677;52.378;10.400;2023-04-24T02:55:12;1.70;;;1.40;;
58896;SDS011;44677;52.378;10.400;2023-04-24T02:57:37;1.80;;;1.70;;
58896;SDS011;44677;52.378;10.400;2023-04-24T03:00:03;2.60;;;1.60;;
58896;SDS011;44677;52.378;10.400;2023-04-24T03:02:35;1.70;;;1.60;;
58896;SDS011;44677;52.378;10.400;2023-04-24T03:05:01;2.40;;;1.50;;
58896;SDS011;44677;52.378;10.400;2023-04-24T03:07:27;1.80;;;1.70;;
58896;SDS011;44677;52.378;10.400;2023-04-24T03:09:52;1.20;;;1.20;;
58896;SDS011;44677;52.378;10.400;2023-04-24T03:12:18;1.70;;;1.30;;
58896;SDS011;44677;52.378;10.400;2023-04-24T03:14:44;1.50;;;1.20;;
58896;SDS011;44677;52.378;10.400;2023-04-24T03:17:09;1.30;;;1.30;;
58896;SDS011;44677;52.378;10.400;2023-04-24T03:19:35;1.40;;;1.20;;
58896;SDS011;44677;52.378;10.400;2023-04-24T03:22:05;1.90;;;1.40;;
58896;SDS011;44677;52.378;10.400;2023-04-24T03:24:30;1.80;;;1.60;;
58896;SDS011;44677;52.378;10.400;2023-04-24T03:26:56;1.20;;;1.20;;
58896;SDS011;44677;52.378;10.400;2023-04-24T03:29:38;2.40;;;1.40;;
58896;SDS011;44677;52.378;10.400;2023-04-24T03:32:03;1.90;;;1.30;;
58896;SDS011;44677;52.378;10.400;2023-04-24T03:34:29;2.00;;;1.40;;
58896;SDS011;44677;52.378;10.400;2023-04-24T03:36:56;1.50;;;1.30;;
58896;SDS011;44677;52.378;10.400;2023-04-24T03:39:26;1.50;;;1.40;;
58896;SDS011;44677;52.378;10.400;2023-04-24T03:41:55;1.60;;;1.30;;
58896;SDS011;44677;52.378;10.400;2023-04-24T03:44:26;1.20;;;1.20;;
58896;SDS011;44677;52.378;10.400;2023-04-24T03:46:51;1.50;;;1.40;;
58896;SDS011;44677;52.378;10.400;2023-04-24T03:49:18;1.50;;;1.40;;
58896;SDS011;44677;52.378;10.400;2023-04-24T03:51:44;1.90;;;1.30;;
58896;SDS011;44677;52.378;10.400;2023-04-24T03:54:21;1.80;;;1.30;;
58896;SDS011;44677;52.378;10.400;2023-04-24T03:56:48;1.20;;;1.20;;
58896;SDS011;44677;52.378;10.400;2023-04-24T03:59:14;1.40;;;1.30;;
58896;SDS011;44677;52.378;10.400;2023-04-24T04:01:49;1.30;;;1.30;;
58896;SDS011;44677;52.378;10.400;2023-04-24T04:04:17;2.40;;;1.60;;
58896;SDS011;44677;52.378;10.400;2023-04-24T04:06:43;1.40;;;1.30;;
58896;SDS011;44677;52.378;10.400;2023-04-24T04:09:09;2.30;;;1.30;;
58896;SDS011;44677;52.378;10.400;2023-04-24T04:11:35;1.30;;;1.20;;
58896;SDS011;44677;52.378;10.400;2023-04-24T04:14:02;2.00;;;1.50;;
58896;SDS011;44677;52.378;10.400;2023-04-24T04:16:27;1.90;;;1.30;;
58896;SDS011;44677;52.378;10.400;2023-04-24T04:18:58;1.70;;;1.40;;
58896;SDS011;44677;52.378;10.400;2023-04-24T04:21:24;1.10;;;1.00;;
58896;SDS011;44677;52.378;10.400;2023-04-24T04:23:52;1.40;;;1.30;;
58896;SDS011;44677;52.378;10.400;2023-04-24T04:26:29;1.30;;;1.20;;
58896;SDS011;44677;52.378;10.400;2023-04-24T04:29:09;1.10;;;1.00;;
58896;SDS011;44677;52.378;10.400;2023-04-24T04:31:44;1.20;;;1.10;;
58896;SDS011;44677;52.378;10.400;2023-04-24T04:34:12;1.70;;;1.30;;
58896;SDS011;44677;52.378;10.400;2023-04-24T04:36:40;1.20;;;1.20;;
58896;SDS011;44677;52.378;10.400;2023-04-24T04:39:20;1.30;;;1.10;;
58896;SDS011;44677;52.378;10.400;2023-04-24T04:42:13;1.10;;;1.10;;
58896;SDS011;44677;52.378;10.400;2023-04-24T04:44:41;1.40;;;1.30;;
58896;SDS011;44677;52.378;10.400;2023-04-24T04:47:09;1.20;;;1.00;;
58896;SDS011;44677;52.378;10.400;2023-04-24T04:49:43;1.00;;;1.00;;
58896;SDS011;44677;52.378;10.400;2023-04-24T04:52:15;1.20;;;1.10;;
58896;SDS011;44677;52.378;10.400;2023-04-24T04:54:54;1.30;;;1.20;;
58896;SDS011;44677;52.378;10.400;2023-04-24T04:57:26;1.30;;;1.20;;
58896;SDS011;44677;52.378;10.400;2023-04-24T04:59:52;2.20;;;1.00;;
58896;SDS011;44677;52.378;10.400;2023-04-24T05:02:27;1.10;;;1.10;;
58896;SDS011;44677;52.378;10.400;2023-04-24T05:04:53;2.50;;;1.30;;
58896;SDS011;44677;52.378;10.400;2023-04-24T05:07:19;1.30;;;1.20;;
58896;SDS011;44677;52.378;10.400;2023-04-24T05:09:51;1.30;;;1.30;;
58896;SDS011;44677;52.378;10.400;2023-04-24T05:12:18;1.40;;;1.30;;
58896;SDS011;44677;52.378;10.400;2023-04-24T05:14:50;1.20;;;1.10;;
58896;SDS011;44677;52.378;10.400;2023-04-24T05:17:15;1.20;;;1.20;;
58896;SDS011;44677;52.378;10.400;2023-04-24T05:19:41;1.30;;;1.20;;
58896;SDS011;44677;52.378;10.400;2023-04-24T05:22:07;2.40;;;1.20;;
58896;SDS011;44677;52.378;10.400;2023-04-24T05:24:42;2.50;;;1.20;;
58896;SDS011;44677;52.378;10.400;2023-04-24T05:27:20;0.90;;;0.90;;
58896;SDS011;44677;52.378;10.400;2023-04-24T05:29:47;1.40;;;0.90;;
58896;SDS011;44677;52.378;10.400;2023-04-24T05:32:13;1.90;;;1.10;;
58896;SDS011;44677;52.378;10.400;2023-04-24T05:34:39;1.30;;;1.20;;
58896;SDS011;44677;52.378;10.400;2023-04-24T05:37:04;2.50;;;1.20;;
58896;SDS011;44677;52.378;10.400;2023-04-24T05:39:34;1.90;;;1.20;;
58896;SDS011;44677;52.378;10.400;2023-04-24T05:42:00;1.30;;;1.20;;
58896;SDS011;44677;52.378;10.400;2023-04-24T05:44:26;3.00;;;1.40;;
58896;SDS011;44677;52.378;10.400;2023-04-24T05:46:51;1.40;;;1.30;;
58896;SDS011;44677;52.378;10.400;2023-04-24T05:49:17;1.50;;;1.30;;
58896;SDS011;44677;52.378;10.400;2023-04-24T05:51:45;1.60;;;1.50;;
58896;SDS011;44677;52.378;10.400;2023-04-24T05:54:10;1.90;;;1.70;;
58896;SDS011;44677;52.378;10.400;2023-04-24T05:59:03;3.10;;;1.50;;
58896;SDS011;44677;52.378;10.400;2023-04-24T06:01:29;1.70;;;1.60;;
58896;SDS011;44677;52.378;10.400;2023-04-24T06:04:07;2.40;;;1.40;;
58896;SDS011;44677;52.378;10.400;2023-04-24T06:06:32;1.90;;;1.80;;
58896;SDS011;44677;52.378;10.400;2023-04-24T06:08:58;2.30;;;1.60;;
58896;SDS011;44677;52.378;10.400;2023-04-24T06:11:24;2.10;;;1.60;;
58896;SDS011;44677;52.378;10.400;2023-04-24T06:13:50;2.00;;;1.40;;
58896;SDS011;44677;52.378;10.400;2023-04-24T06:16:34;1.50;;;1.50;;
58896;SDS011;44677;52.378;10.400;2023-04-24T06:19:04;1.60;;;1.40;;
58896;SDS011;44677;52.378;10.400;2023-04-24T06:21:29;1.40;;;1.30;;
58896;SDS011;44677;52.378;10.400;2023-04-24T06:23:55;2.60;;;1.20;;
58896;SDS011;44677;52.378;10.400;2023-04-24T06:26:21;1.70;;;1.20;;
58896;SDS011;44677;52.378;10.400;2023-04-24T06:28:47;0.80;;;0.80;;
58896;SDS011;44677;52.378;10.400;2023-04-24T06:31:12;1.10;;;1.00;;
58896;SDS011;44677;52.378;10.400;2023-04-24T06:33:38;0.90;;;0.90;;
58896;SDS011;44677;52.378;10.400;2023-04-24T06:36:03;0.70;;;0.70;;
58896;SDS011;44677;52.378;10.400;2023-04-24T06:38:29;1.80;;;1.10;;
58896;SDS011;44677;52.378;10.400;2023-04-24T06:40:54;2.00;;;1.30;;
58896;SDS011;44677;52.378;10.400;2023-04-24T06:43:20;1.40;;;1.20;;
58896;SDS011;44677;52.378;10.400;2023-04-24T06:45:45;1.40;;;1.30;;
58896;SDS011;44677;52.378;10.400;2023-04-24T06:48:12;3.00;;;1.30;;
58896;SDS011;44677;52.378;10.400;2023-04-24T06:50:37;1.60;;;1.50;;
58896;SDS011;44677;52.378;10.400;2023-04-24T06:53:03;1.30;;;1.10;;
58896;SDS011;44677;52.378;10.400;2023-04-24T06:55:28;1.30;;;1.20;;
58896;SDS011;44677;52.378;10.400;2023-04-24T06:57:54;0.90;;;0.90;;
58896;SDS011;44677;52.378;10.400;2023-04-24T07:00:19;1.30;;;1.20;;
58896;SDS011;44677;52.378;10.400;2023-04-24T07:02:45;1.40;;;1.30;;
58896;SDS011;44677;52.378;10.400;2023-04-24T07:05:10;2.30;;;1.40;;
58896;SDS011;44677;52.378;10.400;2023-04-24T07:07:35;1.40;;;1.30;;
58896;SDS011;44677;52.378;10.400;2023-04-24T07:10:03;2.00;;;1.50;;
58896;SDS011;44677;52.378;10.400;2023-04-24T07:12:30;1.50;;;1.30;;
58896;SDS011;44677;52.378;10.400;2023-04-24T07:14:55;1.40;;;1.30;;
58896;SDS011;44677;52.378;10.400;2023-04-24T07:17:21;1.00;;;1.00;;
58896;SDS011;44677;52.378;10.400;2023-04-24T07:19:55;1.00;;;1.00;;
58896;SDS011;44677;52.378;10.400;2023-04-24T07:22:20;2.10;;;1.10;;
58896;SDS011;44677;52.378;10.400;2023-04-24T07:24:46;1.80;;;1.10;;
58896;SDS011;44677;52.378;10.400;2023-04-24T07:27:11;1.20;;;1.10;;
58896;SDS011;44677;52.378;10.400;2023-04-24T07:29:37;1.30;;;1.20;;
58896;SDS011;44677;52.378;10.400;2023-04-24T07:32:03;1.30;;;1.20;;
58896;SDS011;44677;52.378;10.400;2023-04-24T07:34:29;1.40;;;1.00;;
58896;SDS011;44677;52.378;10.400;2023-04-24T07:36:54;1.30;;;1.20;;
58896;SDS011;44677;52.378;10.400;2023-04-24T15:32:12;1.90;;;1.80;;
58896;SDS011;44677;52.378;10.400;2023-04-24T15:34:38;1.80;;;1.70;;
58896;SDS011;44677;52.378;10.400;2023-04-24T15:37:03;2.50;;;1.90;;
58896;SDS011;44677;52.378;10.400;2023-04-24T15:39:29;2.30;;;2.10;;
58896;SDS011;44677;52.378;10.400;2023-04-24T15:41:54;1.90;;;1.80;;
58896;SDS011;44677;52.378;10.400;2023-04-24T15:44:21;3.40;;;1.90;;
58896;SDS011;44677;52.378;10.400;2023-04-24T15:46:46;2.40;;;2.20;;
58896;SDS011;44677;52.378;10.400;2023-04-24T15:49:12;4.50;;;2.00;;
58896;SDS011;44677;52.378;10.400;2023-04-24T15:51:37;2.90;;;2.60;;
58896;SDS011;44677;52.378;10.400;2023-04-24T15:54:03;5.60;;;2.80;;
58896;SDS011;44677;52.378;10.400;2023-04-24T15:56:28;3.00;;;2.70;;
58896;SDS011;44677;52.378;10.400;2023-04-24T15:58:54;3.60;;;2.50;;
58896;SDS011;44677;52.378;10.400;2023-04-24T16:01:19;4.60;;;2.40;;
58896;SDS011;44677;52.378;10.400;2023-04-24T16:03:45;3.70;;;2.40;;
58896;SDS011;44677;52.378;10.400;2023-04-24T16:06:11;2.90;;;2.60;;
58896;SDS011;44677;52.378;10.400;2023-04-24T16:08:37;5.60;;;2.40;;
58896;SDS011;44677;52.378;10.400;2023-04-24T16:11:03;3.20;;;2.60;;
58896;SDS011;44677;52.378;10.400;2023-04-24T16:13:28;3.80;;;2.70;;
58896;SDS011;44677;52.378;10.400;2023-04-24T16:15:57;3.20;;;2.70;;
58896;SDS011;44677;52.378;10.400;2023-04-24T16:18:22;4.50;;;3.00;;
58896;SDS011;44677;52.378;10.400;2023-04-24T16:20:48;3.80;;;2.80;;
58896;SDS011;44677;52.378;10.400;2023-04-24T16:23:13;3.10;;;2.60;;
58896;SDS011;44677;52.378;10.400;2023-04-24T16:25:39;4.10;;;2.70;;
58896;SDS011;44677;52.378;10.400;2023-04-24T16:28:05;4.80;;;2.90;;
58896;SDS011;44677;52.378;10.400;2023-04-24T16:30:30;6.20;;;2.70;;
58896;SDS011;44677;52.378;10.400;2023-04-24T16:32:56;4.20;;;3.10;;
58896;SDS011;44677;52.378;10.400;2023-04-24T16:35:21;8.40;;;3.40;;
58896;SDS011;44677;52.378;10.400;2023-04-24T16:37:47;5.40;;;3.60;;
58896;SDS011;44677;52.378;10.400;2023-04-24T16:40:12;3.50;;;3.20;;
58896;SDS011;44677;52.378;10.400;2023-04-24T16:42:38;5.50;;;3.70;;
58896;SDS011;44677;52.378;10.400;2023-04-24T16:45:03;5.40;;;3.00;;
58896;SDS011;44677;52.378;10.400;2023-04-24T16:47:29;3.70;;;3.30;;
58896;SDS011;44677;52.378;10.400;2023-04-24T16:49:55;5.00;;;3.40;;
58896;SDS011;44677;52.378;10.400;2023-04-24T16:52:20;7.00;;;3.40;;
58896;SDS011;44677;52.378;10.400;2023-04-24T16:54:46;5.90;;;3.50;;
58896;SDS011;44677;52.378;10.400;2023-04-24T16:57:11;5.50;;;2.90;;
58896;SDS011;44677;52.378;10.400;2023-04-24T16:59:37;5.00;;;3.30;;
58896;SDS011;44677;52.378;10.400;2023-04-24T17:02:02;8.30;;;3.90;;
58896;SDS011;44677;52.378;10.400;2023-04-24T17:04:28;4.10;;;3.20;;
58896;SDS011;44677;52.378;10.400;2023-04-24T17:06:54;5.00;;;3.40;;
58896;SDS011;44677;52.378;10.400;2023-04-24T17:09:20;6.10;;;3.70;;
58896;SDS011;44677;52.378;10.400;2023-04-24T17:11:45;6.10;;;3.50;;
58896;SDS011;44677;52.378;10.400;2023-04-24T17:14:11;3.70;;;3.30;;
58896;SDS011;44677;52.378;10.400;2023-04-24T17:16:37;6.10;;;3.60;;
58896;SDS011;44677;52.378;10.400;2023-04-24T17:19:04;8.00;;;3.40;;
58896;SDS011;44677;52.378;10.400;2023-04-24T17:21:30;4.20;;;3.60;;
58896;SDS011;44677;52.378;10.400;2023-04-24T17:23:55;4.50;;;3.10;;
58896;SDS011;44677;52.378;10.400;2023-04-24T17:26:21;6.00;;;3.40;;
58896;SDS011;44677;52.378;10.400;2023-04-24T17:28:46;4.00;;;3.30;;
58896;SDS011;44677;52.378;10.400;2023-04-24T17:31:12;4.90;;;3.10;;
58896;SDS011;44677;52.378;10.400;2023-04-24T17:33:38;5.10;;;2.70;;
58896;SDS011;44677;52.378;10.400;2023-04-24T17:36:04;5.50;;;3.00;;
58896;SDS011;44677;52.378;10.400;2023-04-24T17:40:57;5.00;;;2.90;;
58896;SDS011;44677;52.378;10.400;2023-04-24T17:43:24;4.20;;;2.50;;
58896;SDS011;44677;52.378;10.400;2023-04-24T17:45:50;3.50;;;2.60;;
58896;SDS011;44677;52.378;10.400;2023-04-24T17:48:18;6.90;;;2.60;;
58896;SDS011;44677;52.378;10.400;2023-04-24T17:50:44;3.90;;;2.30;;
58896;SDS011;44677;52.378;10.400;2023-04-24T17:53:10;3.80;;;2.20;;
58896;SDS011;44677;52.378;10.400;2023-04-24T17:55:36;4.20;;;2.20;;
58896;SDS011;44677;52.378;10.400;2023-04-24T17:58:03;5.10;;;2.40;;
58896;SDS011;44677;52.378;10.400;2023-04-24T18:00:29;4.10;;;2.40;;
58896;SDS011;44677;52.378;10.400;2023-04-24T18:02:55;2.50;;;1.90;;
58896;SDS011;44677;52.378;10.400;2023-04-24T18:05:28;5.10;;;2.40;;
58896;SDS011;44677;52.378;10.400;2023-04-24T18:07:55;2.60;;;2.10;;
58896;SDS011;44677;52.378;10.400;2023-04-24T18:10:21;3.40;;;2.80;;
58896;SDS011;44677;52.378;10.400;2023-04-24T18:12:48;4.20;;;2.10;;
58896;SDS011;44677;52.378;10.400;2023-04-24T18:15:13;3.40;;;2.10;;
58896;SDS011;44677;52.378;10.400;2023-04-24T18:17:39;3.70;;;2.10;;
58896;SDS011;44677;52.378;10.400;2023-04-24T18:20:04;4.50;;;2.20;;
58896;SDS011;44677;52.378;10.400;2023-04-24T18:22:30;5.20;;;2.10;;
58896;SDS011;44677;52.378;10.400;2023-04-24T18:24:56;2.70;;;2.50;;
58896;SDS011;44677;52.378;10.400;2023-04-24T18:27:21;3.90;;;2.40;;
58896;SDS011;44677;52.378;10.400;2023-04-24T18:29:52;3.90;;;2.80;;
58896;SDS011;44677;52.378;10.400;2023-04-24T18:32:18;3.70;;;2.60;;
58896;SDS011;44677;52.378;10.400;2023-04-24T18:34:43;3.00;;;2.70;;
58896;SDS011;44677;52.378;10.400;2023-04-24T18:37:09;4.00;;;3.20;;
58896;SDS011;44677;52.378;10.400;2023-04-24T18:39:35;2.80;;;2.40;;
58896;SDS011;44677;52.378;10.400;2023-04-24T18:42:00;5.60;;;2.80;;
58896;SDS011;44677;52.378;10.400;2023-04-24T18:44:26;2.40;;;2.20;;
58896;SDS011;44677;52.378;10.400;2023-04-24T18:46:52;7.50;;;2.40;;
58896;SDS011;44677;52.378;10.400;2023-04-24T18:49:17;3.80;;;2.40;;
58896;SDS011;44677;52.378;10.400;2023-04-24T18:51:43;2.90;;;2.50;;
58896;SDS011;44677;52.378;10.400;2023-04-24T18:54:09;2.30;;;2.20;;
58896;SDS011;44677;52.378;10.400;2023-04-24T18:56:35;5.20;;;2.60;;
58896;SDS011;44677;52.378;10.400;2023-04-24T18:59:01;3.00;;;2.20;;
58896;SDS011;44677;52.378;10.400;2023-04-24T19:01:27;2.90;;;2.50;;
58896;SDS011;44677;52.378;10.400;2023-04-24T19:03:52;3.50;;;2.20;;
58896;SDS011;44677;52.378;10.400;2023-04-24T19:06:18;2.20;;;2.10;;
58896;SDS011;44677;52.378;10.400;2023-04-24T19:08:43;3.10;;;1.90;;
58896;SDS011;44677;52.378;10.400;2023-04-24T19:11:12;3.30;;;2.30;;
58896;SDS011;44677;52.378;10.400;2023-04-24T19:13:37;2.60;;;2.40;;
58896;SDS011;44677;52.378;10.400;2023-04-24T19:16:03;3.50;;;2.30;;
58896;SDS011;44677;52.378;10.400;2023-04-24T19:18:28;2.60;;;2.40;;
58896;SDS011;44677;52.378;10.400;2023-04-24T19:20:55;2.40;;;2.20;;
58896;SDS011;44677;52.378;10.400;2023-04-24T19:23:20;2.50;;;2.30;;
58896;SDS011;44677;52.378;10.400;2023-04-24T19:25:49;2.70;;;2.40;;
58896;SDS011;44677;52.378;10.400;2023-04-24T19:28:14;4.80;;;3.00;;
58896;SDS011;44677;52.378;10.400;2023-04-24T19:30:40;4.80;;;2.90;;
58896;SDS011;44677;52.378;10.400;2023-04-24T19:33:05;3.50;;;2.50;;
58896;SDS011;44677;52.378;10.400;2023-04-24T19:35:31;2.90;;;2.60;;
58896;SDS011;44677;52.378;10.400;2023-04-24T19:37:59;2.80;;;2.60;;
58896;SDS011;44677;52.378;10.400;2023-04-24T19:40:25;4.40;;;2.40;;
58896;SDS011;44677;52.378;10.400;2023-04-24T19:42:50;6.60;;;2.70;;
58896;SDS011;44677;52.378;10.400;2023-04-24T19:45:16;2.70;;;2.50;;
58896;SDS011;44677;52.378;10.400;2023-04-24T19:47:41;4.00;;;2.60;;
58896;SDS011;44677;52.378;10.400;2023-04-24T19:50:07;3.70;;;2.60;;
58896;SDS011;44677;52.378;10.400;2023-04-24T19:52:34;4.60;;;2.80;;
58896;SDS011;44677;52.378;10.400;2023-04-24T19:54:59;5.20;;;2.90;;
58896;SDS011;44677;52.378;10.400;2023-04-24T19:57:25;4.70;;;2.60;;
58896;SDS011;44677;52.378;10.400;2023-04-24T19:59:50;3.40;;;2.50;;
58896;SDS011;44677;52.378;10.400;2023-04-24T20:02:16;3.40;;;2.70;;
58896;SDS011;44677;52.378;10.400;2023-04-24T20:04:41;2.90;;;2.60;;
58896;SDS011;44677;52.378;10.400;2023-04-24T20:07:06;4.60;;;2.30;;
58896;SDS011;44677;52.378;10.400;2023-04-24T20:09:32;3.70;;;2.30;;
58896;SDS011;44677;52.378;10.400;2023-04-24T20:11:58;4.80;;;2.80;;
58896;SDS011;44677;52.378;10.400;2023-04-24T20:14:23;3.50;;;2.80;;
58896;SDS011;44677;52.378;10.400;2023-04-24T20:16:49;4.70;;;2.40;;
58896;SDS011;44677;52.378;10.400;2023-04-24T20:19:15;3.60;;;2.50;;
58896;SDS011;44677;52.378;10.400;2023-04-24T20:21:41;4.80;;;2.70;;
58896;SDS011;44677;52.378;10.400;2023-04-24T20:24:06;5.80;;;2.70;;
58896;SDS011;44677;52.378;10.400;2023-04-24T20:26:33;4.30;;;2.60;;
58896;SDS011;44677;52.378;10.400;2023-04-24T20:29:00;3.70;;;2.30;;
58896;SDS011;44677;52.378;10.400;2023-04-24T20:31:29;3.80;;;2.50;;
58896;SDS011;44677;52.378;10.400;2023-04-24T20:33:55;4.80;;;2.90;;
58896;SDS011;44677;52.378;10.400;2023-04-24T20:36:20;7.00;;;2.80;;
58896;SDS011;44677;52.378;10.400;2023-04-24T20:38:46;5.80;;;2.80;;
58896;SDS011;44677;52.378;10.400;2023-04-24T20:41:11;5.20;;;2.80;;
58896;SDS011;44677;52.378;10.400;2023-04-24T20:43:37;3.80;;;2.70;;
58896;SDS011;44677;52.378;10.400;2023-04-24T20:46:02;3.80;;;2.70;;
58896;SDS011;44677;52.378;10.400;2023-04-24T20:48:28;3.40;;;2.50;;
58896;SDS011;44677;52.378;10.400;2023-04-24T20:50:53;3.80;;;2.70;;
58896;SDS011;44677;52.378;10.400;2023-04-24T20:53:19;8.00;;;3.20;;
58896;SDS011;44677;52.378;10.400;2023-04-24T20:55:45;5.20;;;3.20;;
58896;SDS011;44677;52.378;10.400;2023-04-24T20:58:11;3.50;;;3.00;;
58896;SDS011;44677;52.378;10.400;2023-04-24T21:00:36;5.70;;;3.50;;
58896;SDS011;44677;52.378;10.400;2023-04-24T21:03:02;4.30;;;3.00;;
58896;SDS011;44677;52.378;10.400;2023-04-24T21:05:27;4.40;;;2.80;;
58896;SDS011;44677;52.378;10.400;2023-04-24T21:07:53;6.60;;;3.60;;
58896;SDS011;44677;52.378;10.400;2023-04-24T21:10:23;5.50;;;3.00;;
58896;SDS011;44677;52.378;10.400;2023-04-24T21:12:50;4.70;;;3.10;;
58896;SDS011;44677;52.378;10.400;2023-04-24T21:15:16;4.80;;;2.80;;
58896;SDS011;44677;52.378;10.400;2023-04-24T21:17:42;5.20;;;2.90;;
58896;SDS011;44677;52.378;10.400;2023-04-24T21:20:09;8.70;;;3.10;;
58896;SDS011;44677;52.378;10.400;2023-04-24T21:22:35;3.90;;;3.20;;
58896;SDS011;44677;52.378;10.400;2023-04-24T21:25:01;7.60;;;3.50;;
58896;SDS011;44677;52.378;10.400;2023-04-24T21:27:27;7.70;;;3.20;;
58896;SDS011;44677;52.378;10.400;2023-04-24T21:29:53;10.70;;;3.50;;
58896;SDS011;44677;52.378;10.400;2023-04-24T21:32:18;6.20;;;3.00;;
58896;SDS011;44677;52.378;10.400;2023-04-24T21:34:44;8.30;;;3.20;;
58896;SDS011;44677;52.378;10.400;2023-04-24T21:37:10;6.70;;;3.30;;
58896;SDS011;44677;52.378;10.400;2023-04-24T21:39:36;5.30;;;3.00;;
58896;SDS011;44677;52.378;10.400;2023-04-24T21:42:02;5.70;;;3.20;;
58896;SDS011;44677;52.378;10.400;2023-04-24T21:44:28;5.80;;;3.10;;
58896;SDS011;44677;52.378;10.400;2023-04-24T21:46:53;5.10;;;3.10;;
58896;SDS011;44677;52.378;10.400;2023-04-24T21:49:21;8.80;;;3.60;;
58896;SDS011;44677;52.378;10.400;2023-04-24T21:51:46;8.10;;;3.10;;
58896;SDS011;44677;52.378;10.400;2023-04-24T21:54:12;6.30;;;3.30;;
58896;SDS011;44677;52.378;10.400;2023-04-24T21:56:38;8.20;;;3.20;;
58896;SDS011;44677;52.378;10.400;2023-04-24T21:59:06;6.70;;;3.30;;
58896;SDS011;44677;52.378;10.400;2023-04-24T22:01:33;7.50;;;3.20;;
58896;SDS011;44677;52.378;10.400;2023-04-24T22:06:32;4.60;;;3.90;;
58896;SDS011;44677;52.378;10.400;2023-04-24T22:09:00;10.90;;;3.70;;
58896;SDS011;44677;52.378;10.400;2023-04-24T22:11:26;7.60;;;3.10;;
58896;SDS011;44677;52.378;10.400;2023-04-24T22:13:52;7.80;;;3.80;;
58896;SDS011;44677;52.378;10.400;2023-04-24T22:16:19;8.10;;;3.80;;
58896;SDS011;44677;52.378;10.400;2023-04-24T22:18:47;7.70;;;3.60;;
58896;SDS011;44677;52.378;10.400;2023-04-24T22:21:13;6.40;;;3.20;;
58896;SDS011;44677;52.378;10.400;2023-04-24T22:23:39;8.20;;;4.40;;
58896;SDS011;44677;52.378;10.400;2023-04-24T22:26:05;8.30;;;3.60;;
58896;SDS011;44677;52.378;10.400;2023-04-24T22:28:31;10.60;;;4.60;;
58896;SDS011;44677;52.378;10.400;2023-04-24T22:30:57;7.80;;;4.00;;
58896;SDS011;44677;52.378;10.400;2023-04-24T22:33:22;7.60;;;3.70;;